sensor_id;sensor_type;location;lat;lon;timestamp;pressure;altitude;pressure_sealevel;temperature;humidity
10135;BME280;5107;48.850;8.924;2023-04-25T00:00:24;96176.00;;;7.91;85.48
10135;BME280;5107;48.850;8.924;2023-04-25T00:02:50;96179.31;;;7.85;85.51
10135;BME280;5107;48.850;8.924;2023-04-25T00:05:15;96176.84;;;7.83;85.53
10135;BME280;5107;48.850;8.924;2023-04-25T00:07:41;96165.22;;;7.86;85.83
10135;BME280;5107;48.850;8.924;2023-04-25T00:10:09;96155.06;;;7.91;86.02
10135;BME280;5107;48.850;8.924;2023-04-25T00:12:36;96158.66;;;7.90;85.79
10135;BME280;5107;48.850;8.924;2023-04-25T00:15:02;96161.44;;;7.80;85.54
10135;BME280;5107;48.850;8.924;2023-04-25T00:17:27;96174.72;;;7.71;85.86
10135;BME280;5107;48.850;8.924;2023-04-25T00:19:53;96174.91;;;7.69;86.75
10135;BME280;5107;48.850;8.924;2023-04-25T00:22:18;96186.38;;;7.60;86.88
10135;BME280;5107;48.850;8.924;2023-04-25T00:24:43;96190.63;;;7.53;86.87
10135;BME280;5107;48.850;8.924;2023-04-25T00:27:09;96186.84;;;7.47;87.79
10135;BME280;5107;48.850;8.924;2023-04-25T00:29:34;96177.34;;;7.46;87.39
10135;BME280;5107;48.850;8.924;2023-04-25T00:32:01;96175.56;;;7.47;87.84
10135;BME280;5107;48.850;8.924;2023-04-25T00:34:27;96176.88;;;7.51;87.69
10135;BME280;5107;48.850;8.924;2023-04-25T00:36:52;96170.81;;;7.50;87.65
10135;BME280;5107;48.850;8.924;2023-04-25T00:39:17;96170.81;;;7.50;87.36
10135;BME280;5107;48.850;8.924;2023-04-25T00:41:43;96171.63;;;7.51;87.49
10135;BME280;5107;48.850;8.924;2023-04-25T00:44:09;96167.84;;;7.61;88.24
10135;BME280;5107;48.850;8.924;2023-04-25T00:46:36;96173.75;;;7.63;87.38
10135;BME280;5107;48.850;8.924;2023-04-25T00:49:02;96169.47;;;7.71;87.15
10135;BME280;5107;48.850;8.924;2023-04-25T00:51:27;96165.06;;;7.79;86.74
10135;BME280;5107;48.850;8.924;2023-04-25T00:53:53;96158.66;;;7.82;86.15
10135;BME280;5107;48.850;8.924;2023-04-25T00:56:19;96158.00;;;7.80;85.98
10135;BME280;5107;48.850;8.924;2023-04-25T00:58:45;96160.16;;;7.76;86.24
10135;BME280;5107;48.850;8.924;2023-04-25T01:01:11;96161.16;;;7.67;85.64
10135;BME280;5107;48.850;8.924;2023-04-25T01:03:38;96143.66;;;7.59;85.98
10135;BME280;5107;48.850;8.924;2023-04-25T01:06:07;96141.84;;;7.60;85.49
10135;BME280;5107;48.850;8.924;2023-04-25T01:08:33;96146.91;;;7.61;85.46
10135;BME280;5107;48.850;8.924;2023-04-25T01:10:59;96144.13;;;7.63;85.90
10135;BME280;5107;48.850;8.924;2023-04-25T01:13:24;96141.53;;;7.55;84.98
10135;BME280;5107;48.850;8.924;2023-04-25T01:15:50;96148.75;;;7.53;84.88
10135;BME280;5107;48.850;8.924;2023-04-25T01:18:15;96150.34;;;7.46;84.15
10135;BME280;5107;48.850;8.924;2023-04-25T01:20:42;96149.88;;;7.34;84.96
10135;BME280;5107;48.850;8.924;2023-04-25T01:23:08;96144.00;;;7.32;85.57
10135;BME280;5107;48.850;8.924;2023-04-25T01:25:34;96138.09;;;7.22;85.13
10135;BME280;5107;48.850;8.924;2023-04-25T01:28:00;96139.91;;;7.21;85.54
10135;BME280;5107;48.850;8.924;2023-04-25T01:30:28;96138.25;;;7.12;85.48
10135;BME280;5107;48.850;8.924;2023-04-25T01:32:55;96151.84;;;7.08;85.70
10135;BME280;5107;48.850;8.924;2023-04-25T01:35:22;96150.50;;;7.12;85.32
10135;BME280;5107;48.850;8.924;2023-04-25T01:37:49;96150.72;;;7.18;85.07
10135;BME280;5107;48.850;8.924;2023-04-25T01:40:14;96151.19;;;7.22;84.96
10135;BME280;5107;48.850;8.924;2023-04-25T01:42:42;96146.94;;;7.29;84.86
10135;BME280;5107;48.850;8.924;2023-04-25T01:45:09;96150.72;;;7.35;84.61
10135;BME280;5107;48.850;8.924;2023-04-25T01:47:35;96154.31;;;7.42;84.33
10135;BME280;5107;48.850;8.924;2023-04-25T01:50:03;96150.88;;;7.41;84.05
10135;BME280;5107;48.850;8.924;2023-04-25T01:52:29;96143.31;;;7.46;83.95
10135;BME280;5107;48.850;8.924;2023-04-25T01:54:55;96148.91;;;7.35;84.28
10135;BME280;5107;48.850;8.924;2023-04-25T01:57:21;96140.41;;;7.25;84.45
10135;BME280;5107;48.850;8.924;2023-04-25T01:59:47;96136.00;;;7.26;85.51
10135;BME280;5107;48.850;8.924;2023-04-25T02:02:12;96142.50;;;7.30;85.60
10135;BME280;5107;48.850;8.924;2023-04-25T02:04:37;96140.41;;;7.33;85.42
10135;BME280;5107;48.850;8.924;2023-04-25T02:07:03;96135.97;;;7.42;85.21
10135;BME280;5107;48.850;8.924;2023-04-25T02:09:28;96131.88;;;7.39;85.22
10135;BME280;5107;48.850;8.924;2023-04-25T02:11:54;96138.75;;;7.40;85.70
10135;BME280;5107;48.850;8.924;2023-04-25T02:14:19;96132.69;;;7.48;85.41
10135;BME280;5107;48.850;8.924;2023-04-25T02:16:45;96132.03;;;7.54;85.62
10135;BME280;5107;48.850;8.924;2023-04-25T02:19:11;96141.84;;;7.60;85.26
10135;BME280;5107;48.850;8.924;2023-04-25T02:21:37;96131.69;;;7.65;84.74
10135;BME280;5107;48.850;8.924;2023-04-25T02:24:03;96125.97;;;7.70;84.87
10135;BME280;5107;48.850;8.924;2023-04-25T02:26:29;96126.13;;;7.68;84.85
10135;BME280;5107;48.850;8.924;2023-04-25T02:28:56;96118.94;;;7.54;84.97
10135;BME280;5107;48.850;8.924;2023-04-25T02:31:21;96121.25;;;7.49;85.27
10135;BME280;5107;48.850;8.924;2023-04-25T02:33:47;96129.94;;;7.41;86.21
10135;BME280;5107;48.850;8.924;2023-04-25T02:36:13;96125.69;;;7.32;85.59
10135;BME280;5107;48.850;8.924;2023-04-25T02:38:38;96125.00;;;7.30;85.50
10135;BME280;5107;48.850;8.924;2023-04-25T02:41:04;96132.03;;;7.30;86.10
10135;BME280;5107;48.850;8.924;2023-04-25T02:43:29;96129.13;;;7.33;86.16
10135;BME280;5107;48.850;8.924;2023-04-25T02:45:55;96130.25;;;7.30;85.79
10135;BME280;5107;48.850;8.924;2023-04-25T02:48:20;96126.97;;;7.20;86.24
10135;BME280;5107;48.850;8.924;2023-04-25T02:50:45;96122.56;;;7.04;86.98
10135;BME280;5107;48.850;8.924;2023-04-25T02:53:11;96120.28;;;7.01;87.91
10135;BME280;5107;48.850;8.924;2023-04-25T02:55:36;96118.47;;;6.94;88.22
10135;BME280;5107;48.850;8.924;2023-04-25T02:58:02;96107.34;;;6.92;89.04
10135;BME280;5107;48.850;8.924;2023-04-25T03:00:27;96105.56;;;6.84;89.55
10135;BME280;5107;48.850;8.924;2023-04-25T03:02:53;96106.84;;;6.80;90.21
10135;BME280;5107;48.850;8.924;2023-04-25T03:05:18;96102.41;;;6.72;89.92
10135;BME280;5107;48.850;8.924;2023-04-25T03:07:44;96107.66;;;6.72;90.61
10135;BME280;5107;48.850;8.924;2023-04-25T03:10:11;96099.47;;;6.67;90.25
10135;BME280;5107;48.850;8.924;2023-04-25T03:12:36;96098.66;;;6.67;89.93
10135;BME280;5107;48.850;8.924;2023-04-25T03:15:02;96105.84;;;6.65;90.71
10135;BME280;5107;48.850;8.924;2023-04-25T03:17:27;96101.75;;;6.62;91.08
10135;BME280;5107;48.850;8.924;2023-04-25T03:19:53;96105.81;;;6.57;91.37
10135;BME280;5107;48.850;8.924;2023-04-25T03:22:18;96106.78;;;6.56;91.47
10135;BME280;5107;48.850;8.924;2023-04-25T03:24:44;96106.16;;;6.62;91.73
10135;BME280;5107;48.850;8.924;2023-04-25T03:27:09;96107.78;;;6.63;91.58
10135;BME280;5107;48.850;8.924;2023-04-25T03:29:35;96109.94;;;6.75;91.67
10135;BME280;5107;48.850;8.924;2023-04-25T03:32:00;96105.88;;;6.81;90.84
10135;BME280;5107;48.850;8.924;2023-04-25T03:34:25;96106.03;;;6.88;90.29
10135;BME280;5107;48.850;8.924;2023-04-25T03:36:51;96099.66;;;6.90;89.98
10135;BME280;5107;48.850;8.924;2023-04-25T03:39:16;96102.94;;;6.92;89.49
10135;BME280;5107;48.850;8.924;2023-04-25T03:41:42;96109.47;;;6.96;89.71
10135;BME280;5107;48.850;8.924;2023-04-25T03:44:07;96102.59;;;6.95;89.53
10135;BME280;5107;48.850;8.924;2023-04-25T03:46:32;96098.03;;;6.89;89.32
10135;BME280;5107;48.850;8.924;2023-04-25T03:48:57;96093.78;;;6.88;89.35
10135;BME280;5107;48.850;8.924;2023-04-25T03:51:24;96094.94;;;6.85;89.49
10135;BME280;5107;48.850;8.924;2023-04-25T03:53:50;96088.69;;;6.86;89.78
10135;BME280;5107;48.850;8.924;2023-04-25T03:56:15;96092.66;;;6.91;89.90
10135;BME280;5107;48.850;8.924;2023-04-25T03:58:41;96098.19;;;6.88;89.92
10135;BME280;5107;48.850;8.924;2023-04-25T04:01:06;96097.88;;;6.91;89.83
10135;BME280;5107;48.850;8.924;2023-04-25T04:03:35;96097.88;;;6.91;89.79
10135;BME280;5107;48.850;8.924;2023-04-25T04:06:02;96097.22;;;6.97;90.28
10135;BME280;5107;48.850;8.924;2023-04-25T04:08:29;96102.13;;;7.00;90.19
10135;BME280;5107;48.850;8.924;2023-04-25T04:10:55;96106.69;;;7.06;89.49
10135;BME280;5107;48.850;8.924;2023-04-25T04:13:20;96102.78;;;7.18;89.66
10135;BME280;5107;48.850;8.924;2023-04-25T04:15:46;96106.38;;;7.25;89.72
10135;BME280;5107;48.850;8.924;2023-04-25T04:18:11;96104.25;;;7.29;90.28
10135;BME280;5107;48.850;8.924;2023-04-25T04:20:36;96100.81;;;7.28;89.83
10135;BME280;5107;48.850;8.924;2023-04-25T04:23:02;96099.00;;;7.29;90.28
10135;BME280;5107;48.850;8.924;2023-04-25T04:25:27;96109.66;;;7.35;90.68
10135;BME280;5107;48.850;8.924;2023-04-25T04:27:53;96120.56;;;7.55;89.00
10135;BME280;5107;48.850;8.924;2023-04-25T04:30:23;96116.16;;;7.63;88.28
10135;BME280;5107;48.850;8.924;2023-04-25T04:32:50;96117.31;;;7.69;86.98
10135;BME280;5107;48.850;8.924;2023-04-25T04:35:15;96115.66;;;7.68;85.42
10135;BME280;5107;48.850;8.924;2023-04-25T04:37:41;96113.34;;;7.73;84.82
10135;BME280;5107;48.850;8.924;2023-04-25T04:40:07;96120.22;;;7.82;86.00
10135;BME280;5107;48.850;8.924;2023-04-25T04:42:32;96123.78;;;7.89;85.67
10135;BME280;5107;48.850;8.924;2023-04-25T04:44:57;96121.88;;;7.75;85.21
10135;BME280;5107;48.850;8.924;2023-04-25T04:47:24;96133.34;;;7.58;85.40
10135;BME280;5107;48.850;8.924;2023-04-25T04:49:50;96132.88;;;7.38;86.30
10135;BME280;5107;48.850;8.924;2023-04-25T04:52:16;96140.56;;;7.32;86.68
10135;BME280;5107;48.850;8.924;2023-04-25T04:54:41;96142.19;;;7.33;87.57
10135;BME280;5107;48.850;8.924;2023-04-25T04:57:06;96143.16;;;7.23;87.29
10135;BME280;5107;48.850;8.924;2023-04-25T04:59:32;96142.66;;;7.04;87.40
10135;BME280;5107;48.850;8.924;2023-04-25T05:01:57;96139.72;;;6.91;87.42
10135;BME280;5107;48.850;8.924;2023-04-25T05:04:22;96143.13;;;6.75;88.23
10135;BME280;5107;48.850;8.924;2023-04-25T05:06:48;96148.19;;;6.68;88.85
10135;BME280;5107;48.850;8.924;2023-04-25T05:09:13;96145.03;;;6.65;89.25
10135;BME280;5107;48.850;8.924;2023-04-25T05:11:40;96138.53;;;6.61;90.15
10135;BME280;5107;48.850;8.924;2023-04-25T05:14:05;96138.66;;;6.59;90.79
10135;BME280;5107;48.850;8.924;2023-04-25T05:16:30;96140.94;;;6.54;91.12
10135;BME280;5107;48.850;8.924;2023-04-25T05:18:56;96138.50;;;6.53;91.26
10135;BME280;5107;48.850;8.924;2023-04-25T05:21:21;96139.59;;;6.42;90.45
10135;BME280;5107;48.850;8.924;2023-04-25T05:23:47;96130.81;;;6.51;91.48
10135;BME280;5107;48.850;8.924;2023-04-25T05:26:12;96133.13;;;6.70;91.12
10135;BME280;5107;48.850;8.924;2023-04-25T05:28:41;96131.72;;;6.92;91.24
10135;BME280;5107;48.850;8.924;2023-04-25T05:31:06;96138.44;;;7.11;90.44
10135;BME280;5107;48.850;8.924;2023-04-25T05:33:32;96151.34;;;7.29;89.49
10135;BME280;5107;48.850;8.924;2023-04-25T05:35:57;96147.13;;;7.36;88.30
10135;BME280;5107;48.850;8.924;2023-04-25T05:38:23;96142.50;;;7.38;87.51
10135;BME280;5107;48.850;8.924;2023-04-25T05:40:48;96142.50;;;7.46;87.79
10135;BME280;5107;48.850;8.924;2023-04-25T05:43:13;96148.75;;;7.53;87.42
10135;BME280;5107;48.850;8.924;2023-04-25T05:45:39;96155.28;;;7.41;86.51
10135;BME280;5107;48.850;8.924;2023-04-25T05:48:04;96151.34;;;7.37;87.18
10135;BME280;5107;48.850;8.924;2023-04-25T05:50:29;96145.94;;;7.22;87.58
10135;BME280;5107;48.850;8.924;2023-04-25T05:52:55;96145.28;;;7.12;88.30
10135;BME280;5107;48.850;8.924;2023-04-25T05:55:20;96143.16;;;7.07;89.57
10135;BME280;5107;48.850;8.924;2023-04-25T05:57:46;96149.22;;;7.08;89.29
10135;BME280;5107;48.850;8.924;2023-04-25T06:00:12;96147.13;;;7.19;89.38
10135;BME280;5107;48.850;8.924;2023-04-25T06:02:38;96145.63;;;7.41;89.40
10135;BME280;5107;48.850;8.924;2023-04-25T06:05:04;96149.00;;;7.82;88.46
10135;BME280;5107;48.850;8.924;2023-04-25T06:07:29;96149.88;;;7.58;86.31
10135;BME280;5107;48.850;8.924;2023-04-25T06:09:56;96153.63;;;7.40;86.54
10135;BME280;5107;48.850;8.924;2023-04-25T06:12:21;96154.31;;;7.34;87.54
10135;BME280;5107;48.850;8.924;2023-04-25T06:14:46;96153.63;;;7.40;86.78
10135;BME280;5107;48.850;8.924;2023-04-25T06:17:12;96152.13;;;7.61;86.94
10135;BME280;5107;48.850;8.924;2023-04-25T06:19:38;96153.97;;;7.61;86.31
10135;BME280;5107;48.850;8.924;2023-04-25T06:22:03;96153.97;;;7.53;86.49
10135;BME280;5107;48.850;8.924;2023-04-25T06:24:28;96151.03;;;7.32;87.00
10135;BME280;5107;48.850;8.924;2023-04-25T06:26:54;96153.47;;;7.09;87.77
10135;BME280;5107;48.850;8.924;2023-04-25T06:29:20;96146.28;;;7.03;88.23
10135;BME280;5107;48.850;8.924;2023-04-25T06:31:45;96149.06;;;7.01;89.34
10135;BME280;5107;48.850;8.924;2023-04-25T06:34:10;96152.97;;;7.13;89.20
10135;BME280;5107;48.850;8.924;2023-04-25T06:36:36;96147.06;;;7.11;88.58
10135;BME280;5107;48.850;8.924;2023-04-25T06:39:01;96149.72;;;7.19;88.19
10135;BME280;5107;48.850;8.924;2023-04-25T06:41:27;96148.91;;;7.19;87.39
10135;BME280;5107;48.850;8.924;2023-04-25T06:43:52;96149.53;;;7.21;88.04
10135;BME280;5107;48.850;8.924;2023-04-25T06:46:18;96146.94;;;7.29;88.09
10135;BME280;5107;48.850;8.924;2023-04-25T06:48:43;96147.75;;;7.38;87.87
10135;BME280;5107;48.850;8.924;2023-04-25T06:51:08;96145.47;;;7.35;86.28
10135;BME280;5107;48.850;8.924;2023-04-25T06:53:34;96142.50;;;7.46;86.62
10135;BME280;5107;48.850;8.924;2023-04-25T06:55:59;96145.78;;;7.64;86.54
10135;BME280;5107;48.850;8.924;2023-04-25T06:58:24;96138.06;;;7.71;85.38
10135;BME280;5107;48.850;8.924;2023-04-25T07:00:51;96139.03;;;7.86;84.51
10135;BME280;5107;48.850;8.924;2023-04-25T07:03:16;96143.75;;;7.98;84.60
10135;BME280;5107;48.850;8.924;2023-04-25T07:05:41;96146.69;;;7.95;84.32
10135;BME280;5107;48.850;8.924;2023-04-25T07:08:07;96151.13;;;7.79;84.45
10135;BME280;5107;48.850;8.924;2023-04-25T07:10:32;96153.28;;;7.75;85.10
10135;BME280;5107;48.850;8.924;2023-04-25T07:12:58;96157.22;;;7.71;84.97
10135;BME280;5107;48.850;8.924;2023-04-25T07:15:23;96158.84;;;7.80;85.38
10135;BME280;5107;48.850;8.924;2023-04-25T07:17:48;96162.63;;;7.70;86.67
10135;BME280;5107;48.850;8.924;2023-04-25T07:20:14;96156.41;;;7.54;87.10
10135;BME280;5107;48.850;8.924;2023-04-25T07:22:39;96156.41;;;7.62;88.45
10135;BME280;5107;48.850;8.924;2023-04-25T07:25:05;96157.84;;;7.81;88.55
10135;BME280;5107;48.850;8.924;2023-04-25T07:27:31;96169.47;;;7.79;88.37
10135;BME280;5107;48.850;8.924;2023-04-25T07:29:56;96169.31;;;7.72;88.29
10135;BME280;5107;48.850;8.924;2023-04-25T07:32:22;96170.81;;;7.67;88.74
10135;BME280;5107;48.850;8.924;2023-04-25T07:34:47;96174.72;;;7.71;88.92
10135;BME280;5107;48.850;8.924;2023-04-25T07:37:13;96170.31;;;7.55;88.26
10135;BME280;5107;48.850;8.924;2023-04-25T07:39:39;96170.66;;;7.60;88.19
10135;BME280;5107;48.850;8.924;2023-04-25T07:42:04;96163.28;;;7.55;87.66
10135;BME280;5107;48.850;8.924;2023-04-25T07:44:33;96167.84;;;7.53;87.99
10135;BME280;5107;48.850;8.924;2023-04-25T07:47:06;96176.50;;;7.70;88.74
10135;BME280;5107;48.850;8.924;2023-04-25T07:49:38;96174.91;;;7.69;88.69
10135;BME280;5107;48.850;8.924;2023-04-25T07:52:04;96181.13;;;7.76;88.59
10135;BME280;5107;48.850;8.924;2023-04-25T07:54:31;96182.69;;;8.10;90.23
10135;BME280;5107;48.850;8.924;2023-04-25T07:56:56;96184.34;;;8.11;85.04
10135;BME280;5107;48.850;8.924;2023-04-25T07:59:22;96186.94;;;8.19;85.48
10135;BME280;5107;48.850;8.924;2023-04-25T08:01:48;96197.25;;;8.12;84.89
10135;BME280;5107;48.850;8.924;2023-04-25T08:04:13;96195.13;;;8.08;84.64
10135;BME280;5107;48.850;8.924;2023-04-25T08:06:39;96200.06;;;8.11;85.28
10135;BME280;5107;48.850;8.924;2023-04-25T08:09:05;96199.06;;;8.04;85.76
10135;BME280;5107;48.850;8.924;2023-04-25T08:11:31;96200.72;;;7.96;87.89
10135;BME280;5107;48.850;8.924;2023-04-25T08:13:56;96201.69;;;8.12;87.59
10135;BME280;5107;48.850;8.924;2023-04-25T08:16:21;96212.13;;;8.28;87.08
10135;BME280;5107;48.850;8.924;2023-04-25T08:18:47;96216.25;;;8.06;86.53
10135;BME280;5107;48.850;8.924;2023-04-25T08:21:12;96223.00;;;7.92;87.60
10135;BME280;5107;48.850;8.924;2023-04-25T08:23:38;96221.03;;;7.94;89.07
10135;BME280;5107;48.850;8.924;2023-04-25T08:26:04;96221.63;;;8.21;90.34
10135;BME280;5107;48.850;8.924;2023-04-25T08:28:32;96223.66;;;7.86;88.32
10135;BME280;5107;48.850;8.924;2023-04-25T08:30:58;96226.72;;;8.14;90.28
10135;BME280;5107;48.850;8.924;2023-04-25T08:33:23;96238.03;;;8.15;87.94
10135;BME280;5107;48.850;8.924;2023-04-25T08:35:49;96232.81;;;7.98;87.07
10135;BME280;5107;48.850;8.924;2023-04-25T08:38:14;96234.75;;;7.96;87.56
10135;BME280;5107;48.850;8.924;2023-04-25T08:43:13;96249.19;;;7.92;88.58
10135;BME280;5107;48.850;8.924;2023-04-25T08:45:40;96248.53;;;7.98;89.01
10135;BME280;5107;48.850;8.924;2023-04-25T08:48:10;96256.38;;;7.90;89.56
10135;BME280;5107;48.850;8.924;2023-04-25T08:50:56;96256.22;;;7.92;90.33
10135;BME280;5107;48.850;8.924;2023-04-25T08:53:26;96261.78;;;8.05;89.92
10135;BME280;5107;48.850;8.924;2023-04-25T08:55:54;96267.19;;;8.12;89.81
10135;BME280;5107;48.850;8.924;2023-04-25T08:58:20;96265.69;;;8.25;89.97
10135;BME280;5107;48.850;8.924;2023-04-25T09:00:46;96266.66;;;8.24;89.43
10135;BME280;5107;48.850;8.924;2023-04-25T09:03:12;96269.63;;;8.21;89.45
10135;BME280;5107;48.850;8.924;2023-04-25T09:05:39;96279.94;;;8.23;89.69
10135;BME280;5107;48.850;8.924;2023-04-25T09:08:05;96275.84;;;8.28;89.96
10135;BME280;5107;48.850;8.924;2023-04-25T09:10:31;96282.91;;;8.04;89.26
10135;BME280;5107;48.850;8.924;2023-04-25T09:13:03;96286.19;;;8.06;90.12
10135;BME280;5107;48.850;8.924;2023-04-25T09:15:29;96296.00;;;7.95;90.28
10135;BME280;5107;48.850;8.924;2023-04-25T09:17:56;96294.19;;;7.63;89.85
10135;BME280;5107;48.850;8.924;2023-04-25T09:20:22;96296.59;;;7.41;90.80
10135;BME280;5107;48.850;8.924;2023-04-25T09:22:47;96305.59;;;7.38;91.34
10135;BME280;5107;48.850;8.924;2023-04-25T09:25:12;96308.34;;;7.37;92.22
10135;BME280;5107;48.850;8.924;2023-04-25T09:27:50;96309.81;;;7.23;91.71
10135;BME280;5107;48.850;8.924;2023-04-25T09:30:16;96314.25;;;7.39;92.61
10135;BME280;5107;48.850;8.924;2023-04-25T09:32:43;96313.09;;;7.33;91.18
10135;BME280;5107;48.850;8.924;2023-04-25T09:35:08;96323.41;;;7.27;91.29
10135;BME280;5107;48.850;8.924;2023-04-25T09:37:34;96325.63;;;7.13;91.52
10135;BME280;5107;48.850;8.924;2023-04-25T09:40:05;96327.88;;;7.00;92.05
10135;BME280;5107;48.850;8.924;2023-04-25T09:42:31;96329.19;;;7.04;92.48
10135;BME280;5107;48.850;8.924;2023-04-25T09:44:57;96326.75;;;7.03;92.46
10135;BME280;5107;48.850;8.924;2023-04-25T09:47:25;96334.03;;;6.91;92.12
10135;BME280;5107;48.850;8.924;2023-04-25T09:49:52;96336.31;;;6.86;92.98
10135;BME280;5107;48.850;8.924;2023-04-25T09:52:22;96343.16;;;6.87;93.32
10135;BME280;5107;48.850;8.924;2023-04-25T09:54:49;96349.06;;;6.89;93.28
10135;BME280;5107;48.850;8.924;2023-04-25T09:57:17;96350.75;;;6.98;93.65
10135;BME280;5107;48.850;8.924;2023-04-25T09:59:45;96347.16;;;6.99;93.58
10135;BME280;5107;48.850;8.924;2023-04-25T10:02:12;96349.53;;;7.18;94.35
10135;BME280;5107;48.850;8.924;2023-04-25T10:04:38;96358.81;;;7.13;93.76
10135;BME280;5107;48.850;8.924;2023-04-25T10:07:08;96367.06;;;7.26;93.75
10135;BME280;5107;48.850;8.924;2023-04-25T10:09:36;96367.91;;;7.35;93.67
10135;BME280;5107;48.850;8.924;2023-04-25T10:12:02;96372.19;;;7.44;93.60
10135;BME280;5107;48.850;8.924;2023-04-25T10:14:29;96369.88;;;7.41;91.97
10135;BME280;5107;48.850;8.924;2023-04-25T10:16:56;96389.34;;;7.46;91.35
10135;BME280;5107;48.850;8.924;2023-04-25T10:19:23;96388.72;;;7.44;88.14
10135;BME280;5107;48.850;8.924;2023-04-25T10:22:13;96398.78;;;7.31;89.15
10135;BME280;5107;48.850;8.924;2023-04-25T10:24:40;96400.59;;;7.31;89.26
10135;BME280;5107;48.850;8.924;2023-04-25T10:27:07;96403.56;;;7.36;90.29
10135;BME280;5107;48.850;8.924;2023-04-25T10:29:32;96410.00;;;7.49;91.20
10135;BME280;5107;48.850;8.924;2023-04-25T10:31:57;96409.72;;;7.60;90.70
10135;BME280;5107;48.850;8.924;2023-04-25T10:34:25;96414.84;;;7.78;91.12
10135;BME280;5107;48.850;8.924;2023-04-25T10:37:02;96414.19;;;7.76;90.91
10135;BME280;5107;48.850;8.924;2023-04-25T10:39:28;96410.56;;;7.69;89.92
10135;BME280;5107;48.850;8.924;2023-04-25T10:41:58;96419.44;;;7.84;89.89
10135;BME280;5107;48.850;8.924;2023-04-25T10:44:27;96412.03;;;7.80;88.32
10135;BME280;5107;48.850;8.924;2023-04-25T10:46:58;96421.25;;;7.92;87.90
10135;BME280;5107;48.850;8.924;2023-04-25T10:54:47;96429.31;;;8.23;86.86
10135;BME280;5107;48.850;8.924;2023-04-25T10:57:32;96439.63;;;8.16;87.58
10135;BME280;5107;48.850;8.924;2023-04-25T11:02:30;96442.22;;;8.00;85.63
10135;BME280;5107;48.850;8.924;2023-04-25T11:04:56;96443.50;;;7.88;85.64
10135;BME280;5107;48.850;8.924;2023-04-25T11:09:48;96444.19;;;7.48;84.33
10135;BME280;5107;48.850;8.924;2023-04-25T11:12:14;96444.91;;;7.66;84.89
10135;BME280;5107;48.850;8.924;2023-04-25T11:14:40;96442.94;;;7.60;85.49
10135;BME280;5107;48.850;8.924;2023-04-25T11:17:05;96452.06;;;7.56;85.40
10135;BME280;5107;48.850;8.924;2023-04-25T11:19:31;96444.22;;;7.56;85.75
10135;BME280;5107;48.850;8.924;2023-04-25T11:21:58;96452.28;;;7.37;85.92
10135;BME280;5107;48.850;8.924;2023-04-25T11:24:28;96446.75;;;7.06;85.75
10135;BME280;5107;48.850;8.924;2023-04-25T11:26:54;96444.84;;;6.90;86.22
10135;BME280;5107;48.850;8.924;2023-04-25T11:29:26;96446.41;;;7.01;86.82
10135;BME280;5107;48.850;8.924;2023-04-25T11:31:52;96448.22;;;6.82;87.38
10135;BME280;5107;48.850;8.924;2023-04-25T11:34:20;96451.88;;;6.90;88.33
10135;BME280;5107;48.850;8.924;2023-04-25T11:36:45;96451.78;;;6.99;88.54
10135;BME280;5107;48.850;8.924;2023-04-25T11:39:11;96454.56;;;6.80;88.38
10135;BME280;5107;48.850;8.924;2023-04-25T11:41:38;96451.66;;;6.83;88.39
10135;BME280;5107;48.850;8.924;2023-04-25T11:44:04;96458.88;;;6.63;89.05
10135;BME280;5107;48.850;8.924;2023-04-25T11:46:30;96451.63;;;6.57;87.80
10135;BME280;5107;48.850;8.924;2023-04-25T11:48:59;96456.03;;;6.57;88.60
10135;BME280;5107;48.850;8.924;2023-04-25T11:51:24;96455.66;;;6.69;89.80
10135;BME280;5107;48.850;8.924;2023-04-25T11:53:50;96456.97;;;6.73;89.13
10135;BME280;5107;48.850;8.924;2023-04-25T11:56:16;96461.16;;;6.84;89.36
10135;BME280;5107;48.850;8.924;2023-04-25T12:01:28;96454.47;;;7.41;87.71
10135;BME280;5107;48.850;8.924;2023-04-25T12:03:54;96457.53;;;7.37;85.24
10135;BME280;5107;48.850;8.924;2023-04-25T12:06:19;96460.94;;;7.71;86.91
10135;BME280;5107;48.850;8.924;2023-04-25T12:09:04;96468.47;;;7.66;85.71
10135;BME280;5107;48.850;8.924;2023-04-25T12:11:31;96464.31;;;7.97;86.62
10135;BME280;5107;48.850;8.924;2023-04-25T12:14:03;96473.06;;;7.72;86.74
10135;BME280;5107;48.850;8.924;2023-04-25T12:16:29;96467.56;;;7.83;86.54
10135;BME280;5107;48.850;8.924;2023-04-25T12:18:55;96467.69;;;7.74;85.10
10135;BME280;5107;48.850;8.924;2023-04-25T12:21:22;96477.34;;;7.39;83.94
10135;BME280;5107;48.850;8.924;2023-04-25T12:23:47;96471.44;;;7.37;84.45
10135;BME280;5107;48.850;8.924;2023-04-25T12:26:13;96471.38;;;7.55;85.38
10135;BME280;5107;48.850;8.924;2023-04-25T12:28:38;96481.06;;;7.71;84.15
10135;BME280;5107;48.850;8.924;2023-04-25T12:31:05;96477.47;;;8.30;85.88
10135;BME280;5107;48.850;8.924;2023-04-25T12:33:32;96479.81;;;8.33;83.90
10135;BME280;5107;48.850;8.924;2023-04-25T12:35:58;96478.56;;;8.61;83.20
10135;BME280;5107;48.850;8.924;2023-04-25T12:38:29;96478.22;;;8.72;81.92
10135;BME280;5107;48.850;8.924;2023-04-25T12:40:55;96483.91;;;9.33;83.79
10135;BME280;5107;48.850;8.924;2023-04-25T12:43:21;96485.75;;;9.71;80.66
10135;BME280;5107;48.850;8.924;2023-04-25T12:45:53;96485.75;;;9.71;79.46
10135;BME280;5107;48.850;8.924;2023-04-25T12:48:20;96479.50;;;9.17;79.17
10135;BME280;5107;48.850;8.924;2023-04-25T12:50:46;96481.13;;;9.18;81.74
10135;BME280;5107;48.850;8.924;2023-04-25T12:53:19;96488.03;;;9.11;79.60
10135;BME280;5107;48.850;8.924;2023-04-25T12:55:45;96488.31;;;9.32;81.69
10135;BME280;5107;48.850;8.924;2023-04-25T12:58:17;96480.91;;;9.52;80.30
10135;BME280;5107;48.850;8.924;2023-04-25T13:00:43;96494.22;;;9.34;80.11
10135;BME280;5107;48.850;8.924;2023-04-25T13:03:08;96494.28;;;9.02;78.49
10135;BME280;5107;48.850;8.924;2023-04-25T13:05:34;96494.13;;;9.03;80.32
10135;BME280;5107;48.850;8.924;2023-04-25T13:08:00;96499.19;;;9.05;79.98
10135;BME280;5107;48.850;8.924;2023-04-25T13:10:26;96503.13;;;9.09;80.40
10135;BME280;5107;48.850;8.924;2023-04-25T13:12:51;96499.38;;;8.95;79.52
10135;BME280;5107;48.850;8.924;2023-04-25T13:15:17;96497.38;;;9.13;80.33
10135;BME280;5107;48.850;8.924;2023-04-25T13:17:42;96492.31;;;9.12;81.48
10135;BME280;5107;48.850;8.924;2023-04-25T13:20:08;96497.88;;;9.17;80.29
10135;BME280;5107;48.850;8.924;2023-04-25T13:22:38;96509.59;;;9.62;80.92
10135;BME280;5107;48.850;8.924;2023-04-25T13:25:05;96496.84;;;9.42;79.02
10135;BME280;5107;48.850;8.924;2023-04-25T13:27:32;96502.06;;;9.59;79.13
10135;BME280;5107;48.850;8.924;2023-04-25T13:30:03;96503.69;;;9.60;78.45
10135;BME280;5107;48.850;8.924;2023-04-25T13:32:36;96508.94;;;9.60;78.37